sensor_id;sensor_type;location;lat;lon;timestamp;pressure;altitude;pressure_sealevel;temperature;humidity
40612;BME280;26317;44.894;20.286;2023-02-18T00:00:17;101484.00;;;7.62;70.10
40612;BME280;26317;44.894;20.286;2023-02-18T00:02:56;101469.25;;;7.60;70.16
40612;BME280;26317;44.894;20.286;2023-02-18T00:05:31;101485.84;;;7.62;70.23
40612;BME280;26317;44.894;20.286;2023-02-18T00:08:07;101499.09;;;7.68;70.11
40612;BME280;26317;44.894;20.286;2023-02-18T00:10:48;101472.63;;;7.55;70.05
40612;BME280;26317;44.894;20.286;2023-02-18T00:13:23;101499.69;;;7.70;70.11
40612;BME280;26317;44.894;20.286;2023-02-18T00:16:01;101500.66;;;7.76;70.24
40612;BME280;26317;44.894;20.286;2023-02-18T00:18:45;101496.69;;;7.78;70.10
40612;BME280;26317;44.894;20.286;2023-02-18T00:21:28;101504.50;;;7.80;70.25
40612;BME280;26317;44.894;20.286;2023-02-18T00:24:07;101520.53;;;7.80;70.03
40612;BME280;26317;44.894;20.286;2023-02-18T00:26:44;101513.69;;;7.84;70.14
40612;BME280;26317;44.894;20.286;2023-02-18T00:29:31;101507.88;;;7.87;69.74
40612;BME280;26317;44.894;20.286;2023-02-18T00:32:19;101495.00;;;7.84;70.00
40612;BME280;26317;44.894;20.286;2023-02-18T00:34:57;101516.38;;;7.96;70.07
40612;BME280;26317;44.894;20.286;2023-02-18T00:37:34;101501.16;;;7.96;69.96
40612;BME280;26317;44.894;20.286;2023-02-18T00:40:15;101509.88;;;8.03;69.58
40612;BME280;26317;44.894;20.286;2023-02-18T00:43:08;101509.88;;;8.03;69.25
40612;BME280;26317;44.894;20.286;2023-02-18T00:45:50;101510.56;;;7.99;69.26
40612;BME280;26317;44.894;20.286;2023-02-18T00:48:31;101486.97;;;7.84;69.56
40612;BME280;26317;44.894;20.286;2023-02-18T00:51:11;101499.41;;;8.02;69.53
40612;BME280;26317;44.894;20.286;2023-02-18T00:53:53;101496.63;;;7.97;69.65
40612;BME280;26317;44.894;20.286;2023-02-18T00:56:29;101498.63;;;8.01;69.53
40612;BME280;26317;44.894;20.286;2023-02-18T00:59:04;101484.53;;;8.06;69.63
40612;BME280;26317;44.894;20.286;2023-02-18T01:01:51;101477.72;;;8.10;69.66
40612;BME280;26317;44.894;20.286;2023-02-18T01:04:41;101472.13;;;8.11;69.87
40612;BME280;26317;44.894;20.286;2023-02-18T01:07:18;101488.97;;;8.12;69.55
40612;BME280;26317;44.894;20.286;2023-02-18T01:09:56;101477.81;;;8.15;69.08
40612;BME280;26317;44.894;20.286;2023-02-18T01:12:36;101463.44;;;8.16;68.98
40612;BME280;26317;44.894;20.286;2023-02-18T01:15:35;101457.25;;;8.15;68.93
40612;BME280;26317;44.894;20.286;2023-02-18T01:18:25;101448.78;;;8.18;68.87
40612;BME280;26317;44.894;20.286;2023-02-18T01:21:02;101458.22;;;8.21;68.68
40612;BME280;26317;44.894;20.286;2023-02-18T01:23:36;101448.91;;;8.23;68.61
40612;BME280;26317;44.894;20.286;2023-02-18T01:26:23;101437.06;;;8.19;69.03
40612;BME280;26317;44.894;20.286;2023-02-18T01:29:00;101450.66;;;8.18;69.29
40612;BME280;26317;44.894;20.286;2023-02-18T01:31:38;101446.09;;;8.18;69.31
40612;BME280;26317;44.894;20.286;2023-02-18T01:34:22;101406.84;;;7.96;69.52
40612;BME280;26317;44.894;20.286;2023-02-18T01:36:56;101433.91;;;8.11;69.85
40612;BME280;26317;44.894;20.286;2023-02-18T01:39:40;101444.84;;;8.09;69.90
40612;BME280;26317;44.894;20.286;2023-02-18T01:42:20;101446.72;;;8.09;70.19
40612;BME280;26317;44.894;20.286;2023-02-18T01:47:51;101445.66;;;8.10;69.83
40612;BME280;26317;44.894;20.286;2023-02-18T01:50:29;101414.19;;;7.89;70.11
40612;BME280;26317;44.894;20.286;2023-02-18T01:53:11;101457.25;;;8.15;69.86
40612;BME280;26317;44.894;20.286;2023-02-18T01:56:05;101466.31;;;8.14;70.05
40612;BME280;26317;44.894;20.286;2023-02-18T01:58:57;101453.31;;;8.06;70.56
40612;BME280;26317;44.894;20.286;2023-02-18T02:01:49;101448.09;;;8.11;70.64
40612;BME280;26317;44.894;20.286;2023-02-18T02:04:30;101456.09;;;8.11;70.96
40612;BME280;26317;44.894;20.286;2023-02-18T02:07:21;101451.22;;;8.08;71.21
40612;BME280;26317;44.894;20.286;2023-02-18T02:09:59;101457.59;;;8.07;71.06
40612;BME280;26317;44.894;20.286;2023-02-18T02:15:39;101431.81;;;7.90;71.55
40612;BME280;26317;44.894;20.286;2023-02-18T02:18:26;101425.84;;;7.64;72.76
40612;BME280;26317;44.894;20.286;2023-02-18T02:27:53;101412.97;;;7.20;76.30
40612;BME280;26317;44.894;20.286;2023-02-18T02:31:25;101416.91;;;7.17;77.31
40612;BME280;26317;44.894;20.286;2023-02-18T02:34:45;101400.97;;;7.11;77.85
40612;BME280;26317;44.894;20.286;2023-02-18T02:37:36;101413.75;;;7.09;77.89
40612;BME280;26317;44.894;20.286;2023-02-18T02:40:23;101394.81;;;7.10;78.16
40612;BME280;26317;44.894;20.286;2023-02-18T02:43:07;101398.16;;;7.06;78.63
40612;BME280;26317;44.894;20.286;2023-02-18T02:46:03;101410.00;;;7.10;79.06
40612;BME280;26317;44.894;20.286;2023-02-18T02:48:45;101419.91;;;7.09;78.88
40612;BME280;26317;44.894;20.286;2023-02-18T02:51:34;101393.91;;;7.05;79.27
40612;BME280;26317;44.894;20.286;2023-02-18T02:54:24;101410.66;;;7.23;78.69
40612;BME280;26317;44.894;20.286;2023-02-18T03:00:37;101398.63;;;7.32;78.07
40612;BME280;26317;44.894;20.286;2023-02-18T03:03:59;101393.75;;;7.29;76.67
40612;BME280;26317;44.894;20.286;2023-02-18T03:09:51;101383.28;;;7.28;76.84
40612;BME280;26317;44.894;20.286;2023-02-18T03:12:39;101353.66;;;7.06;77.38
40612;BME280;26317;44.894;20.286;2023-02-18T03:15:27;101380.28;;;7.24;77.42
40612;BME280;26317;44.894;20.286;2023-02-18T03:18:15;101374.94;;;7.24;77.72
40612;BME280;26317;44.894;20.286;2023-02-18T03:20:56;101376.78;;;7.24;77.53
40612;BME280;26317;44.894;20.286;2023-02-18T03:23:48;101387.25;;;7.25;77.74
40612;BME280;26317;44.894;20.286;2023-02-18T03:26:29;101396.06;;;7.26;77.24
40612;BME280;26317;44.894;20.286;2023-02-18T03:29:06;101391.91;;;7.30;76.39
40612;BME280;26317;44.894;20.286;2023-02-18T03:31:42;101376.47;;;7.32;76.36
40612;BME280;26317;44.894;20.286;2023-02-18T03:34:30;101353.94;;;7.28;75.83
40612;BME280;26317;44.894;20.286;2023-02-18T03:37:09;101382.63;;;7.32;75.55
40612;BME280;26317;44.894;20.286;2023-02-18T03:39:56;101385.75;;;7.29;75.85
40612;BME280;26317;44.894;20.286;2023-02-18T03:42:44;101384.25;;;7.33;76.18
40612;BME280;26317;44.894;20.286;2023-02-18T03:45:30;101392.25;;;7.33;76.16
40612;BME280;26317;44.894;20.286;2023-02-18T03:48:16;101362.41;;;7.25;76.09
40612;BME280;26317;44.894;20.286;2023-02-18T03:50:55;101380.28;;;7.36;75.83
40612;BME280;26317;44.894;20.286;2023-02-18T03:53:34;101387.06;;;7.38;75.61
40612;BME280;26317;44.894;20.286;2023-02-18T03:56:19;101394.13;;;7.45;75.46
40612;BME280;26317;44.894;20.286;2023-02-18T03:59:01;101362.16;;;7.26;75.05
40612;BME280;26317;44.894;20.286;2023-02-18T04:01:42;101390.19;;;7.47;74.90
40612;BME280;26317;44.894;20.286;2023-02-18T04:04:24;101388.09;;;7.49;74.45
40612;BME280;26317;44.894;20.286;2023-02-18T04:07:04;101385.09;;;7.46;74.76
40612;BME280;26317;44.894;20.286;2023-02-18T04:09:40;101393.78;;;7.53;74.37
40612;BME280;26317;44.894;20.286;2023-02-18T04:12:43;101384.75;;;7.54;74.60
40612;BME280;26317;44.894;20.286;2023-02-18T04:15:24;101370.81;;;7.52;74.39
40612;BME280;26317;44.894;20.286;2023-02-18T04:18:00;101353.41;;;7.37;74.55
40612;BME280;26317;44.894;20.286;2023-02-18T04:20:31;101301.03;;;7.13;74.05
40612;BME280;26317;44.894;20.286;2023-02-18T04:23:10;101366.88;;;7.54;73.71
40612;BME280;26317;44.894;20.286;2023-02-18T04:25:57;101357.38;;;7.58;73.17
40612;BME280;26317;44.894;20.286;2023-02-18T04:28:46;101366.53;;;7.62;72.94
40612;BME280;26317;44.894;20.286;2023-02-18T04:31:22;101355.50;;;7.59;72.18
40612;BME280;26317;44.894;20.286;2023-02-18T04:34:00;101349.09;;;7.48;71.97
40612;BME280;26317;44.894;20.286;2023-02-18T04:36:38;101379.88;;;7.62;71.94
40612;BME280;26317;44.894;20.286;2023-02-18T04:39:15;101377.44;;;7.61;71.93
40612;BME280;26317;44.894;20.286;2023-02-18T04:41:54;101374.91;;;7.66;71.50
40612;BME280;26317;44.894;20.286;2023-02-18T04:44:41;101366.31;;;7.64;71.45
40612;BME280;26317;44.894;20.286;2023-02-18T04:47:15;101365.38;;;7.58;71.47
40612;BME280;26317;44.894;20.286;2023-02-18T04:49:57;101359.22;;;7.58;71.33
40612;BME280;26317;44.894;20.286;2023-02-18T04:52:32;101373.25;;;7.65;71.43
40612;BME280;26317;44.894;20.286;2023-02-18T04:55:17;101369.91;;;7.58;71.28
40612;BME280;26317;44.894;20.286;2023-02-18T04:57:50;101380.25;;;7.66;71.15
40612;BME280;26317;44.894;20.286;2023-02-18T05:00:28;101379.19;;;7.67;70.97
40612;BME280;26317;44.894;20.286;2023-02-18T05:03:03;101372.22;;;7.66;70.85
40612;BME280;26317;44.894;20.286;2023-02-18T05:05:35;101372.22;;;7.66;70.75
40612;BME280;26317;44.894;20.286;2023-02-18T05:08:09;101347.50;;;7.47;70.67
40612;BME280;26317;44.894;20.286;2023-02-18T05:10:49;101375.50;;;7.68;70.58
40612;BME280;26317;44.894;20.286;2023-02-18T05:13:25;101388.59;;;7.69;70.55
40612;BME280;26317;44.894;20.286;2023-02-18T05:16:13;101407.16;;;7.64;70.48
40612;BME280;26317;44.894;20.286;2023-02-18T05:18:51;101407.84;;;7.60;70.49
40612;BME280;26317;44.894;20.286;2023-02-18T05:21:25;101402.50;;;7.60;70.57
40612;BME280;26317;44.894;20.286;2023-02-18T05:24:02;101408.44;;;7.62;70.38
40612;BME280;26317;44.894;20.286;2023-02-18T05:26:45;101408.44;;;7.62;70.32
40612;BME280;26317;44.894;20.286;2023-02-18T05:29:24;101419.13;;;7.62;70.59
40612;BME280;26317;44.894;20.286;2023-02-18T05:32:11;101420.25;;;7.54;70.66
40612;BME280;26317;44.894;20.286;2023-02-18T05:34:49;101428.63;;;7.58;70.61
40612;BME280;26317;44.894;20.286;2023-02-18T05:37:21;101432.34;;;7.57;70.78
40612;BME280;26317;44.894;20.286;2023-02-18T05:40:02;101434.44;;;7.55;70.68
40612;BME280;26317;44.894;20.286;2023-02-18T05:42:37;101440.13;;;7.58;70.62
40612;BME280;26317;44.894;20.286;2023-02-18T05:45:16;101444.03;;;7.56;70.77
40612;BME280;26317;44.894;20.286;2023-02-18T05:48:05;101449.97;;;7.58;70.82
40612;BME280;26317;44.894;20.286;2023-02-18T05:50:45;101448.59;;;7.55;70.78
40612;BME280;26317;44.894;20.286;2023-02-18T05:53:23;101445.94;;;7.55;70.48
40612;BME280;26317;44.894;20.286;2023-02-18T05:55:59;101454.16;;;7.54;71.12
40612;BME280;26317;44.894;20.286;2023-02-18T05:58:39;101452.50;;;7.53;71.12
40612;BME280;26317;44.894;20.286;2023-02-18T06:01:23;101453.19;;;7.48;71.10
40612;BME280;26317;44.894;20.286;2023-02-18T06:04:07;101455.44;;;7.51;70.82
40612;BME280;26317;44.894;20.286;2023-02-18T06:06:46;101461.13;;;7.55;70.71
40612;BME280;26317;44.894;20.286;2023-02-18T06:09:20;101455.19;;;7.53;70.34
40612;BME280;26317;44.894;20.286;2023-02-18T06:12:00;101453.34;;;7.53;70.58
40612;BME280;26317;44.894;20.286;2023-02-18T06:14:33;101442.31;;;7.50;69.94
40612;BME280;26317;44.894;20.286;2023-02-18T06:17:22;101421.75;;;7.38;69.76
40612;BME280;26317;44.894;20.286;2023-02-18T06:20:14;101449.97;;;7.58;69.33
40612;BME280;26317;44.894;20.286;2023-02-18T06:22:51;101427.19;;;7.44;68.92
40612;BME280;26317;44.894;20.286;2023-02-18T06:25:28;101442.78;;;7.58;68.70
40612;BME280;26317;44.894;20.286;2023-02-18T06:28:04;101449.16;;;7.57;68.54
40612;BME280;26317;44.894;20.286;2023-02-18T06:30:40;101409.91;;;7.34;68.57
40612;BME280;26317;44.894;20.286;2023-02-18T06:33:26;101439.41;;;7.51;68.62
40612;BME280;26317;44.894;20.286;2023-02-18T06:36:15;101450.13;;;7.63;68.75
40612;BME280;26317;44.894;20.286;2023-02-18T06:38:47;101466.84;;;7.70;68.58
40612;BME280;26317;44.894;20.286;2023-02-18T06:41:28;101457.19;;;7.69;68.73
40612;BME280;26317;44.894;20.286;2023-02-18T06:44:04;101456.75;;;7.72;68.91
40612;BME280;26317;44.894;20.286;2023-02-18T06:46:51;101468.28;;;7.84;68.91
40612;BME280;26317;44.894;20.286;2023-02-18T06:49:25;101460.75;;;7.93;68.62
40612;BME280;26317;44.894;20.286;2023-02-18T06:52:10;101469.69;;;7.98;68.40
40612;BME280;26317;44.894;20.286;2023-02-18T06:54:53;101465.84;;;8.06;68.28
40612;BME280;26317;44.894;20.286;2023-02-18T06:57:30;101470.28;;;8.12;68.12
40612;BME280;26317;44.894;20.286;2023-02-18T07:00:13;101454.59;;;8.15;68.23
40612;BME280;26317;44.894;20.286;2023-02-18T07:03:15;101468.06;;;8.20;68.83
40612;BME280;26317;44.894;20.286;2023-02-18T07:05:52;101469.84;;;8.26;68.73
40612;BME280;26317;44.894;20.286;2023-02-18T07:08:36;101446.47;;;8.22;69.15
40612;BME280;26317;44.894;20.286;2023-02-18T07:11:13;101463.91;;;8.36;69.37
40612;BME280;26317;44.894;20.286;2023-02-18T07:14:15;101476.50;;;8.47;69.38
40612;BME280;26317;44.894;20.286;2023-02-18T07:16:54;101466.94;;;8.51;69.97
40612;BME280;26317;44.894;20.286;2023-02-18T07:19:33;101464.03;;;8.53;69.79
40612;BME280;26317;44.894;20.286;2023-02-18T07:22:14;101463.22;;;8.52;70.30
40612;BME280;26317;44.894;20.286;2023-02-18T07:24:58;101489.94;;;8.75;70.95
40612;BME280;26317;44.894;20.286;2023-02-18T07:27:33;101483.41;;;8.83;71.01
40612;BME280;26317;44.894;20.286;2023-02-18T07:30:10;101492.22;;;8.95;70.87
40612;BME280;26317;44.894;20.286;2023-02-18T07:32:54;101491.84;;;9.03;71.07
40612;BME280;26317;44.894;20.286;2023-02-18T07:35:31;101503.81;;;9.12;69.82
40612;BME280;26317;44.894;20.286;2023-02-18T07:38:15;101496.44;;;9.19;69.50
40612;BME280;26317;44.894;20.286;2023-02-18T07:41:00;101510.88;;;9.30;69.33
40612;BME280;26317;44.894;20.286;2023-02-18T07:43:34;101496.31;;;9.26;68.78
40612;BME280;26317;44.894;20.286;2023-02-18T07:46:07;101509.19;;;9.41;68.40
40612;BME280;26317;44.894;20.286;2023-02-18T07:48:47;101521.25;;;9.55;69.03
40612;BME280;26317;44.894;20.286;2023-02-18T07:51:24;101514.91;;;9.61;68.26
40612;BME280;26317;44.894;20.286;2023-02-18T07:54:04;101515.00;;;9.66;67.65
40612;BME280;26317;44.894;20.286;2023-02-18T07:56:46;101514.53;;;9.69;66.76
40612;BME280;26317;44.894;20.286;2023-02-18T07:59:18;101491.72;;;9.66;66.07
40612;BME280;26317;44.894;20.286;2023-02-18T08:01:50;101487.72;;;9.69;65.66
40612;BME280;26317;44.894;20.286;2023-02-18T08:04:54;101508.97;;;9.87;64.86
40612;BME280;26317;44.894;20.286;2023-02-18T08:07:54;101508.88;;;9.99;63.67
40612;BME280;26317;44.894;20.286;2023-02-18T08:10:37;101505.06;;;9.95;63.84
40612;BME280;26317;44.894;20.286;2023-02-18T08:13:22;101503.59;;;10.04;64.82
40612;BME280;26317;44.894;20.286;2023-02-18T08:15:58;101514.97;;;10.11;64.83
40612;BME280;26317;44.894;20.286;2023-02-18T08:18:44;101517.97;;;10.14;63.16
40612;BME280;26317;44.894;20.286;2023-02-18T08:21:22;101513.06;;;10.23;63.29
40612;BME280;26317;44.894;20.286;2023-02-18T08:24:01;101523.38;;;10.31;63.55
40612;BME280;26317;44.894;20.286;2023-02-18T08:26:40;101523.06;;;10.28;63.62
40612;BME280;26317;44.894;20.286;2023-02-18T08:29:31;101514.38;;;10.21;63.16
40612;BME280;26317;44.894;20.286;2023-02-18T08:32:09;101507.69;;;10.23;63.67
40612;BME280;26317;44.894;20.286;2023-02-18T08:34:44;101499.41;;;10.25;63.89
40612;BME280;26317;44.894;20.286;2023-02-18T08:37:20;101505.59;;;10.42;63.32
40612;BME280;26317;44.894;20.286;2023-02-18T08:40:21;101521.19;;;10.45;63.37
40612;BME280;26317;44.894;20.286;2023-02-18T08:42:57;101503.13;;;10.40;63.96
40612;BME280;26317;44.894;20.286;2023-02-18T08:45:50;101500.78;;;10.44;63.90
40612;BME280;26317;44.894;20.286;2023-02-18T08:48:25;101506.78;;;10.51;64.49
40612;BME280;26317;44.894;20.286;2023-02-18T08:51:13;101504.59;;;10.48;64.74
40612;BME280;26317;44.894;20.286;2023-02-18T08:53:48;101504.97;;;10.56;64.63
40612;BME280;26317;44.894;20.286;2023-02-18T08:56:28;101512.88;;;10.63;63.82
40612;BME280;26317;44.894;20.286;2023-02-18T08:59:00;101512.38;;;10.66;63.67
40612;BME280;26317;44.894;20.286;2023-02-18T09:01:47;101494.00;;;10.58;62.71
40612;BME280;26317;44.894;20.286;2023-02-18T09:04:24;101509.66;;;10.83;62.32
40612;BME280;26317;44.894;20.286;2023-02-18T09:06:57;101506.78;;;10.89;61.86
40612;BME280;26317;44.894;20.286;2023-02-18T09:09:42;101497.22;;;10.98;61.53
40612;BME280;26317;44.894;20.286;2023-02-18T09:12:18;101501.16;;;11.13;61.30
40612;BME280;26317;44.894;20.286;2023-02-18T09:14:55;101506.66;;;11.23;61.09
40612;BME280;26317;44.894;20.286;2023-02-18T09:17:42;101470.50;;;11.08;61.03
40612;BME280;26317;44.894;20.286;2023-02-18T09:20:23;101498.69;;;11.54;59.95
40612;BME280;26317;44.894;20.286;2023-02-18T09:23:05;101498.56;;;11.71;60.11
40612;BME280;26317;44.894;20.286;2023-02-18T09:25:46;101477.59;;;11.68;59.37
40612;BME280;26317;44.894;20.286;2023-02-18T09:28:25;101477.69;;;11.78;60.34
40612;BME280;26317;44.894;20.286;2023-02-18T09:31:07;101495.97;;;12.08;59.69
40612;BME280;26317;44.894;20.286;2023-02-18T09:34:06;101505.28;;;12.32;58.94
40612;BME280;26317;44.894;20.286;2023-02-18T09:36:41;101508.69;;;12.55;57.38
40612;BME280;26317;44.894;20.286;2023-02-18T09:39:18;101521.41;;;12.69;55.99
40612;BME280;26317;44.894;20.286;2023-02-18T09:42:03;101513.72;;;12.88;56.60
40612;BME280;26317;44.894;20.286;2023-02-18T09:44:41;101524.28;;;13.00;56.78
40612;BME280;26317;44.894;20.286;2023-02-18T09:47:29;101506.31;;;13.15;55.67
40612;BME280;26317;44.894;20.286;2023-02-18T09:50:17;101502.03;;;13.24;54.51
40612;BME280;26317;44.894;20.286;2023-02-18T09:52:58;101492.41;;;13.39;55.60
40612;BME280;26317;44.894;20.286;2023-02-18T09:55:38;101491.88;;;13.52;54.66
40612;BME280;26317;44.894;20.286;2023-02-18T09:58:15;101501.84;;;13.61;54.40
40612;BME280;26317;44.894;20.286;2023-02-18T10:01:00;101501.06;;;13.71;53.50
40612;BME280;26317;44.894;20.286;2023-02-18T10:03:39;101494.59;;;13.67;53.05
40612;BME280;26317;44.894;20.286;2023-02-18T10:06:28;101507.28;;;13.71;52.86
40612;BME280;26317;44.894;20.286;2023-02-18T10:09:18;101500.00;;;13.82;53.27
40612;BME280;26317;44.894;20.286;2023-02-18T10:11:59;101505.69;;;13.86;51.96
40612;BME280;26317;44.894;20.286;2023-02-18T10:14:40;101490.88;;;13.98;52.95
40612;BME280;26317;44.894;20.286;2023-02-18T10:17:16;101489.50;;;14.11;52.54
40612;BME280;26317;44.894;20.286;2023-02-18T10:20:04;101482.75;;;14.13;51.48
40612;BME280;26317;44.894;20.286;2023-02-18T10:22:42;101477.63;;;14.22;51.37
40612;BME280;26317;44.894;20.286;2023-02-18T10:25:17;101481.94;;;14.18;51.09
40612;BME280;26317;44.894;20.286;2023-02-18T10:27:59;101479.78;;;14.05;51.06
40612;BME280;26317;44.894;20.286;2023-02-18T10:30:40;101443.63;;;13.91;51.61
40612;BME280;26317;44.894;20.286;2023-02-18T10:33:28;101475.47;;;14.14;50.95
40612;BME280;26317;44.894;20.286;2023-02-18T10:36:40;101471.16;;;14.13;51.65
40612;BME280;26317;44.894;20.286;2023-02-18T10:39:50;101446.59;;;14.09;51.72
40612;BME280;26317;44.894;20.286;2023-02-18T10:42:57;101462.53;;;14.06;51.16
40612;BME280;26317;44.894;20.286;2023-02-18T10:45:47;101465.22;;;14.06;51.46
40612;BME280;26317;44.894;20.286;2023-02-18T10:48:54;101449.03;;;14.01;52.01
40612;BME280;26317;44.894;20.286;2023-02-18T10:51:33;101443.91;;;14.09;52.41
40612;BME280;26317;44.894;20.286;2023-02-18T10:54:08;101446.34;;;14.11;51.62
40612;BME280;26317;44.894;20.286;2023-02-18T10:56:47;101443.63;;;14.16;52.13
40612;BME280;26317;44.894;20.286;2023-02-18T10:59:31;101431.50;;;14.08;51.64
40612;BME280;26317;44.894;20.286;2023-02-18T11:02:15;101443.06;;;14.24;52.11
40612;BME280;26317;44.894;20.286;2023-02-18T11:05:04;101441.44;;;14.28;52.17
40612;BME280;26317;44.894;20.286;2023-02-18T11:07:46;101428.78;;;14.23;52.18
40612;BME280;26317;44.894;20.286;2023-02-18T11:10:24;101437.41;;;14.20;52.22
40612;BME280;26317;44.894;20.286;2023-02-18T11:13:13;101433.09;;;14.19;52.33
40612;BME280;26317;44.894;20.286;2023-02-18T11:15:59;101415.56;;;14.27;52.15
40612;BME280;26317;44.894;20.286;2023-02-18T11:18:45;101418.50;;;14.46;51.63
40612;BME280;26317;44.894;20.286;2023-02-18T11:21:33;101428.47;;;14.50;52.39
40612;BME280;26317;44.894;20.286;2023-02-18T11:24:17;101418.19;;;14.57;51.15
40612;BME280;26317;44.894;20.286;2023-02-18T11:26:54;101406.53;;;14.67;50.49
40612;BME280;26317;44.894;20.286;2023-02-18T11:29:40;101404.06;;;14.76;51.12
40612;BME280;26317;44.894;20.286;2023-02-18T11:32:23;101405.16;;;14.74;51.38
40612;BME280;26317;44.894;20.286;2023-02-18T11:35:15;101399.16;;;14.83;51.53
40612;BME280;26317;44.894;20.286;2023-02-18T11:37:49;101402.41;;;14.85;51.01
40612;BME280;26317;44.894;20.286;2023-02-18T11:40:29;101397.81;;;14.90;51.04
40612;BME280;26317;44.894;20.286;2023-02-18T11:43:04;101400.69;;;14.99;50.64
40612;BME280;26317;44.894;20.286;2023-02-18T11:46:09;101389.63;;;15.00;50.44
40612;BME280;26317;44.894;20.286;2023-02-18T11:48:47;101392.31;;;15.05;50.42
40612;BME280;26317;44.894;20.286;2023-02-18T11:51:23;101390.94;;;15.08;50.33
40612;BME280;26317;44.894;20.286;2023-02-18T11:54:22;101384.50;;;14.99;49.71
40612;BME280;26317;44.894;20.286;2023-02-18T11:57:03;101391.00;;;14.98;49.41
40612;BME280;26317;44.894;20.286;2023-02-18T11:59:44;101381.88;;;14.84;50.57
40612;BME280;26317;44.894;20.286;2023-02-18T12:02:33;101375.91;;;14.92;50.71
40612;BME280;26317;44.894;20.286;2023-02-18T12:05:16;101371.56;;;14.96;50.08
40612;BME280;26317;44.894;20.286;2023-02-18T12:08:00;101370.44;;;15.02;50.25
40612;BME280;26317;44.894;20.286;2023-02-18T12:10:41;101357.16;;;15.10;50.83
40612;BME280;26317;44.894;20.286;2023-02-18T12:13:32;101355.25;;;15.11;50.39
40612;BME280;26317;44.894;20.286;2023-02-18T12:16:20;101361.41;;;15.16;50.06
40612;BME280;26317;44.894;20.286;2023-02-18T12:19:36;101356.00;;;15.16;49.89
40612;BME280;26317;44.894;20.286;2023-02-18T12:22:34;101345.44;;;15.20;50.53
40612;BME280;26317;44.894;20.286;2023-02-18T12:26:01;101342.22;;;15.23;49.46
40612;BME280;26317;44.894;20.286;2023-02-18T12:29:01;101316.31;;;15.12;48.92
40612;BME280;26317;44.894;20.286;2023-02-18T12:31:50;101319.00;;;15.17;49.65
40612;BME280;26317;44.894;20.286;2023-02-18T12:34:52;101325.44;;;15.21;48.78
40612;BME280;26317;44.894;20.286;2023-02-18T12:37:59;101317.63;;;15.19;49.42
40612;BME280;26317;44.894;20.286;2023-02-18T12:40:52;101339.59;;;15.42;49.17
40612;BME280;26317;44.894;20.286;2023-02-18T12:43:43;101337.25;;;15.35;49.00
40612;BME280;26317;44.894;20.286;2023-02-18T12:46:42;101332.28;;;15.47;49.40
40612;BME280;26317;44.894;20.286;2023-02-18T12:50:00;101342.22;;;15.57;48.23
40612;BME280;26317;44.894;20.286;2023-02-18T12:53:14;101332.97;;;15.63;48.61
40612;BME280;26317;44.894;20.286;2023-02-18T12:56:04;101335.34;;;15.70;48.86
40612;BME280;26317;44.894;20.286;2023-02-18T12:59:07;101329.94;;;15.70;48.61
40612;BME280;26317;44.894;20.286;2023-02-18T13:01:53;101337.28;;;15.64;49.13
40612;BME280;26317;44.894;20.286;2023-02-18T13:04:44;101321.84;;;15.70;48.40
40612;BME280;26317;44.894;20.286;2023-02-18T13:11:08;101319.16;;;15.93;47.95
40612;BME280;26317;44.894;20.286;2023-02-18T13:13:54;101317.72;;;16.01;46.72
40612;BME280;26317;44.894;20.286;2023-02-18T13:16:28;101305.84;;;15.97;47.32
40612;BME280;26317;44.894;20.286;2023-02-18T13:19:17;101306.88;;;16.01;47.13
40612;BME280;26317;44.894;20.286;2023-02-18T13:21:58;101295.16;;;16.10;47.88
40612;BME280;26317;44.894;20.286;2023-02-18T13:24:40;101295.59;;;16.18;47.22
40612;BME280;26317;44.894;20.286;2023-02-18T13:27:41;101283.84;;;16.27;46.76
40612;BME280;26317;44.894;20.286;2023-02-18T13:30:26;101288.66;;;16.30;45.71
40612;BME280;26317;44.894;20.286;2023-02-18T13:33:20;101277.94;;;16.20;45.70
40612;BME280;26317;44.894;20.286;2023-02-18T13:36:04;101281.44;;;16.02;46.14
40612;BME280;26317;44.894;20.286;2023-02-18T13:39:09;101269.66;;;16.11;46.78
40612;BME280;26317;44.894;20.286;2023-02-18T13:48:36;101245.63;;;16.29;46.04
40612;BME280;26317;44.894;20.286;2023-02-18T13:51:31;101251.72;;;16.39;45.82
40612;BME280;26317;44.894;20.286;2023-02-18T13:54:19;101212.66;;;16.27;46.18
40612;BME280;26317;44.894;20.286;2023-02-18T13:57:08;101234.28;;;16.45;45.30
40612;BME280;26317;44.894;20.286;2023-02-18T13:59:55;101214.41;;;16.36;45.59
40612;BME280;26317;44.894;20.286;2023-02-18T14:02:36;101202.84;;;16.31;46.10
40612;BME280;26317;44.894;20.286;2023-02-18T14:05:46;101219.38;;;16.48;45.15
40612;BME280;26317;44.894;20.286;2023-02-18T14:08:34;101202.34;;;16.47;45.15
40612;BME280;26317;44.894;20.286;2023-02-18T14:11:44;101199.09;;;16.45;44.83
40612;BME280;26317;44.894;20.286;2023-02-18T14:14:42;101202.34;;;16.47;44.99
40612;BME280;26317;44.894;20.286;2023-02-18T14:17:41;101191.19;;;16.49;45.50
40612;BME280;26317;44.894;20.286;2023-02-18T14:20:52;101185.50;;;16.50;45.72
40612;BME280;26317;44.894;20.286;2023-02-18T14:24:02;101178.78;;;16.48;45.37
40612;BME280;26317;44.894;20.286;2023-02-18T14:26:47;101185.56;;;16.45;44.55
40612;BME280;26317;44.894;20.286;2023-02-18T14:29:28;101183.88;;;16.49;44.67
40612;BME280;26317;44.894;20.286;2023-02-18T14:32:08;101191.56;;;16.42;45.40
40612;BME280;26317;44.894;20.286;2023-02-18T14:35:13;101188.56;;;16.44;45.08
40612;BME280;26317;44.894;20.286;2023-02-18T14:38:38;101175.03;;;16.44;45.50
40612;BME280;26317;44.894;20.286;2023-02-18T14:41:53;101161.56;;;16.39;44.62
40612;BME280;26317;44.894;20.286;2023-02-18T14:45:14;101164.22;;;16.44;45.27